sensor_id;sensor_type;location;lat;lon;timestamp;temperature;humidity
18794;DHT22;29610;49.022;12.114;2023-06-22T00:00:41;17.00;99.90
18794;DHT22;29610;49.022;12.114;2023-06-22T00:03:10;17.10;99.90
18794;DHT22;29610;49.022;12.114;2023-06-22T00:05:39;17.00;99.90
18794;DHT22;29610;49.022;12.114;2023-06-22T00:08:07;17.10;99.90
18794;DHT22;29610;49.022;12.114;2023-06-22T00:10:36;17.10;99.90
18794;DHT22;29610;49.022;12.114;2023-06-22T00:13:06;17.10;99.90
18794;DHT22;29610;49.022;12.114;2023-06-22T00:15:37;17.10;99.90
18794;DHT22;29610;49.022;12.114;2023-06-22T00:18:07;17.10;99.90
18794;DHT22;29610;49.022;12.114;2023-06-22T00:20:36;17.10;99.90
18794;DHT22;29610;49.022;12.114;2023-06-22T00:23:06;17.10;99.90
18794;DHT22;29610;49.022;12.114;2023-06-22T00:25:35;17.00;99.90
18794;DHT22;29610;49.022;12.114;2023-06-22T00:28:06;16.90;99.90
18794;DHT22;29610;49.022;12.114;2023-06-22T00:30:35;16.90;99.90
18794;DHT22;29610;49.022;12.114;2023-06-22T00:33:04;16.90;99.90
18794;DHT22;29610;49.022;12.114;2023-06-22T00:35:34;16.90;99.90
18794;DHT22;29610;49.022;12.114;2023-06-22T00:38:03;16.90;99.90
18794;DHT22;29610;49.022;12.114;2023-06-22T00:40:33;16.90;99.90
18794;DHT22;29610;49.022;12.114;2023-06-22T00:43:02;16.90;99.90
18794;DHT22;29610;49.022;12.114;2023-06-22T00:45:32;16.90;99.90
18794;DHT22;29610;49.022;12.114;2023-06-22T00:48:02;16.90;99.90
18794;DHT22;29610;49.022;12.114;2023-06-22T00:50:32;16.90;99.90
18794;DHT22;29610;49.022;12.114;2023-06-22T00:53:04;16.90;99.90
18794;DHT22;29610;49.022;12.114;2023-06-22T00:55:36;16.80;99.90
18794;DHT22;29610;49.022;12.114;2023-06-22T00:58:08;16.80;99.90
18794;DHT22;29610;49.022;12.114;2023-06-22T01:00:40;16.80;99.90
18794;DHT22;29610;49.022;12.114;2023-06-22T01:03:11;16.70;99.90
18794;DHT22;29610;49.022;12.114;2023-06-22T01:05:40;16.70;99.90
18794;DHT22;29610;49.022;12.114;2023-06-22T01:08:17;16.70;99.90
18794;DHT22;29610;49.022;12.114;2023-06-22T01:10:57;16.80;99.90
18794;DHT22;29610;49.022;12.114;2023-06-22T01:13:37;16.80;99.90
18794;DHT22;29610;49.022;12.114;2023-06-22T01:16:14;16.80;99.90
18794;DHT22;29610;49.022;12.114;2023-06-22T01:18:50;16.80;99.90
18794;DHT22;29610;49.022;12.114;2023-06-22T01:21:25;16.70;99.90
18794;DHT22;29610;49.022;12.114;2023-06-22T01:24:10;16.60;99.90
18794;DHT22;29610;49.022;12.114;2023-06-22T01:26:54;16.50;99.90
18794;DHT22;29610;49.022;12.114;2023-06-22T01:29:34;16.50;99.90
18794;DHT22;29610;49.022;12.114;2023-06-22T01:32:06;16.40;99.90
18794;DHT22;29610;49.022;12.114;2023-06-22T01:34:38;16.40;99.90
18794;DHT22;29610;49.022;12.114;2023-06-22T01:37:08;16.50;99.90
18794;DHT22;29610;49.022;12.114;2023-06-22T01:39:37;16.50;99.90
18794;DHT22;29610;49.022;12.114;2023-06-22T01:42:06;16.40;99.90
18794;DHT22;29610;49.022;12.114;2023-06-22T01:44:37;16.40;99.90
18794;DHT22;29610;49.022;12.114;2023-06-22T01:47:09;16.40;99.90
18794;DHT22;29610;49.022;12.114;2023-06-22T01:49:38;16.40;99.90
18794;DHT22;29610;49.022;12.114;2023-06-22T01:52:07;16.40;99.90
18794;DHT22;29610;49.022;12.114;2023-06-22T01:54:37;16.30;99.90
18794;DHT22;29610;49.022;12.114;2023-06-22T01:57:06;16.40;99.90
18794;DHT22;29610;49.022;12.114;2023-06-22T01:59:39;16.40;99.90
18794;DHT22;29610;49.022;12.114;2023-06-22T02:02:19;16.40;99.90
18794;DHT22;29610;49.022;12.114;2023-06-22T02:04:57;16.40;99.90
18794;DHT22;29610;49.022;12.114;2023-06-22T02:07:31;16.40;99.90
18794;DHT22;29610;49.022;12.114;2023-06-22T02:10:07;16.40;99.90
18794;DHT22;29610;49.022;12.114;2023-06-22T02:12:39;16.40;99.90
18794;DHT22;29610;49.022;12.114;2023-06-22T02:15:12;16.30;99.90
18794;DHT22;29610;49.022;12.114;2023-06-22T02:17:43;16.30;99.90
18794;DHT22;29610;49.022;12.114;2023-06-22T02:20:13;16.50;99.90
18794;DHT22;29610;49.022;12.114;2023-06-22T02:22:41;16.20;99.90
18794;DHT22;29610;49.022;12.114;2023-06-22T02:25:10;16.20;99.90
18794;DHT22;29610;49.022;12.114;2023-06-22T02:27:40;16.10;99.90
18794;DHT22;29610;49.022;12.114;2023-06-22T02:30:09;16.10;99.90
18794;DHT22;29610;49.022;12.114;2023-06-22T02:32:40;16.60;99.90
18794;DHT22;29610;49.022;12.114;2023-06-22T02:35:09;16.00;99.90
18794;DHT22;29610;49.022;12.114;2023-06-22T02:37:39;15.90;99.90
18794;DHT22;29610;49.022;12.114;2023-06-22T02:40:09;16.00;99.90
18794;DHT22;29610;49.022;12.114;2023-06-22T02:42:39;15.90;99.90
18794;DHT22;29610;49.022;12.114;2023-06-22T02:45:08;15.90;99.90
18794;DHT22;29610;49.022;12.114;2023-06-22T02:47:37;16.00;99.90
18794;DHT22;29610;49.022;12.114;2023-06-22T02:50:08;16.00;99.90
18794;DHT22;29610;49.022;12.114;2023-06-22T02:52:37;16.10;99.90
18794;DHT22;29610;49.022;12.114;2023-06-22T02:55:07;16.10;99.90
18794;DHT22;29610;49.022;12.114;2023-06-22T02:57:36;16.10;99.90
18794;DHT22;29610;49.022;12.114;2023-06-22T03:00:12;16.10;99.90
18794;DHT22;29610;49.022;12.114;2023-06-22T03:02:47;16.20;99.90
18794;DHT22;29610;49.022;12.114;2023-06-22T03:05:18;16.10;99.90
18794;DHT22;29610;49.022;12.114;2023-06-22T03:07:47;16.10;99.90
18794;DHT22;29610;49.022;12.114;2023-06-22T03:10:16;16.10;99.90
18794;DHT22;29610;49.022;12.114;2023-06-22T03:12:45;16.10;99.90
18794;DHT22;29610;49.022;12.114;2023-06-22T03:15:15;16.10;99.90
18794;DHT22;29610;49.022;12.114;2023-06-22T03:17:50;16.10;99.90
18794;DHT22;29610;49.022;12.114;2023-06-22T03:20:20;16.10;99.90
18794;DHT22;29610;49.022;12.114;2023-06-22T03:22:49;16.00;99.90
18794;DHT22;29610;49.022;12.114;2023-06-22T03:25:17;16.00;99.90
18794;DHT22;29610;49.022;12.114;2023-06-22T03:27:48;16.00;99.90
18794;DHT22;29610;49.022;12.114;2023-06-22T03:30:17;16.00;99.90
18794;DHT22;29610;49.022;12.114;2023-06-22T03:32:46;16.00;99.90
18794;DHT22;29610;49.022;12.114;2023-06-22T03:35:14;16.00;99.90
18794;DHT22;29610;49.022;12.114;2023-06-22T03:37:44;16.00;99.90
18794;DHT22;29610;49.022;12.114;2023-06-22T03:40:13;16.10;99.90
18794;DHT22;29610;49.022;12.114;2023-06-22T03:42:42;16.20;99.90
18794;DHT22;29610;49.022;12.114;2023-06-22T03:45:10;16.20;99.90
18794;DHT22;29610;49.022;12.114;2023-06-22T03:47:40;16.20;99.90
18794;DHT22;29610;49.022;12.114;2023-06-22T03:50:09;16.30;99.90
18794;DHT22;29610;49.022;12.114;2023-06-22T03:52:38;16.30;99.90
18794;DHT22;29610;49.022;12.114;2023-06-22T03:55:08;16.40;99.90
18794;DHT22;29610;49.022;12.114;2023-06-22T03:57:37;16.40;99.90
18794;DHT22;29610;49.022;12.114;2023-06-22T04:00:06;16.50;99.90
18794;DHT22;29610;49.022;12.114;2023-06-22T04:02:40;16.60;99.90
18794;DHT22;29610;49.022;12.114;2023-06-22T04:05:09;16.60;99.90
18794;DHT22;29610;49.022;12.114;2023-06-22T04:07:38;16.70;99.90
18794;DHT22;29610;49.022;12.114;2023-06-22T04:10:09;16.70;99.90
18794;DHT22;29610;49.022;12.114;2023-06-22T04:12:52;16.80;99.90
18794;DHT22;29610;49.022;12.114;2023-06-22T04:15:21;16.80;99.90
18794;DHT22;29610;49.022;12.114;2023-06-22T04:17:50;16.90;99.90
18794;DHT22;29610;49.022;12.114;2023-06-22T04:20:18;16.80;99.90
18794;DHT22;29610;49.022;12.114;2023-06-22T04:22:49;16.80;99.90
18794;DHT22;29610;49.022;12.114;2023-06-22T04:25:19;16.80;99.90
18794;DHT22;29610;49.022;12.114;2023-06-22T04:27:49;16.90;99.90
18794;DHT22;29610;49.022;12.114;2023-06-22T04:30:17;17.00;99.90
18794;DHT22;29610;49.022;12.114;2023-06-22T04:32:46;17.10;99.90
18794;DHT22;29610;49.022;12.114;2023-06-22T04:35:25;17.10;99.90
18794;DHT22;29610;49.022;12.114;2023-06-22T04:37:59;17.20;99.90
18794;DHT22;29610;49.022;12.114;2023-06-22T04:40:29;17.30;99.90
18794;DHT22;29610;49.022;12.114;2023-06-22T04:42:58;17.30;99.90
18794;DHT22;29610;49.022;12.114;2023-06-22T04:45:29;17.30;99.90
18794;DHT22;29610;49.022;12.114;2023-06-22T04:47:58;17.40;99.90
18794;DHT22;29610;49.022;12.114;2023-06-22T04:50:26;17.50;99.90
18794;DHT22;29610;49.022;12.114;2023-06-22T04:52:55;17.50;99.90
18794;DHT22;29610;49.022;12.114;2023-06-22T04:55:24;17.30;99.90
18794;DHT22;29610;49.022;12.114;2023-06-22T04:57:54;17.10;99.90
18794;DHT22;29610;49.022;12.114;2023-06-22T05:00:22;17.10;99.90
18794;DHT22;29610;49.022;12.114;2023-06-22T05:02:51;17.20;99.90
18794;DHT22;29610;49.022;12.114;2023-06-22T05:05:30;17.30;99.90
18794;DHT22;29610;49.022;12.114;2023-06-22T05:08:01;17.40;99.90
18794;DHT22;29610;49.022;12.114;2023-06-22T05:10:29;17.40;99.90
18794;DHT22;29610;49.022;12.114;2023-06-22T05:12:59;17.50;99.90
18794;DHT22;29610;49.022;12.114;2023-06-22T05:15:28;17.50;99.90
18794;DHT22;29610;49.022;12.114;2023-06-22T05:18:00;17.40;99.90
18794;DHT22;29610;49.022;12.114;2023-06-22T05:20:32;17.50;99.90
18794;DHT22;29610;49.022;12.114;2023-06-22T05:23:03;17.60;99.90
18794;DHT22;29610;49.022;12.114;2023-06-22T05:25:32;17.80;99.90
18794;DHT22;29610;49.022;12.114;2023-06-22T05:28:01;18.00;99.90
18794;DHT22;29610;49.022;12.114;2023-06-22T05:30:33;18.10;99.90
18794;DHT22;29610;49.022;12.114;2023-06-22T05:33:01;18.20;99.90
18794;DHT22;29610;49.022;12.114;2023-06-22T05:35:30;18.30;99.90
18794;DHT22;29610;49.022;12.114;2023-06-22T05:37:59;18.40;99.90
18794;DHT22;29610;49.022;12.114;2023-06-22T05:40:27;18.50;99.90
18794;DHT22;29610;49.022;12.114;2023-06-22T05:42:56;18.60;99.90
18794;DHT22;29610;49.022;12.114;2023-06-22T05:45:26;18.80;99.90
18794;DHT22;29610;49.022;12.114;2023-06-22T05:47:55;19.10;99.90
18794;DHT22;29610;49.022;12.114;2023-06-22T05:50:23;19.40;99.90
18794;DHT22;29610;49.022;12.114;2023-06-22T05:52:52;19.50;99.90
18794;DHT22;29610;49.022;12.114;2023-06-22T05:55:20;19.80;99.90
18794;DHT22;29610;49.022;12.114;2023-06-22T05:57:49;20.10;99.90
18794;DHT22;29610;49.022;12.114;2023-06-22T06:00:18;20.20;99.90
18794;DHT22;29610;49.022;12.114;2023-06-22T06:02:48;20.40;99.90
18794;DHT22;29610;49.022;12.114;2023-06-22T06:05:17;20.40;99.90
18794;DHT22;29610;49.022;12.114;2023-06-22T06:07:46;20.50;99.90
18794;DHT22;29610;49.022;12.114;2023-06-22T06:10:15;20.70;99.90
18794;DHT22;29610;49.022;12.114;2023-06-22T06:12:43;20.60;99.90
18794;DHT22;29610;49.022;12.114;2023-06-22T06:15:12;20.60;99.90
18794;DHT22;29610;49.022;12.114;2023-06-22T06:17:46;20.60;99.90
18794;DHT22;29610;49.022;12.114;2023-06-22T06:20:19;20.70;99.90
18794;DHT22;29610;49.022;12.114;2023-06-22T06:22:50;20.80;99.90
18794;DHT22;29610;49.022;12.114;2023-06-22T06:25:18;21.00;99.90
18794;DHT22;29610;49.022;12.114;2023-06-22T06:27:50;21.10;99.90
18794;DHT22;29610;49.022;12.114;2023-06-22T06:30:21;21.20;99.90
18794;DHT22;29610;49.022;12.114;2023-06-22T06:32:52;21.40;99.90
18794;DHT22;29610;49.022;12.114;2023-06-22T06:35:21;21.60;99.90
18794;DHT22;29610;49.022;12.114;2023-06-22T06:37:50;21.80;99.90
18794;DHT22;29610;49.022;12.114;2023-06-22T06:40:18;21.80;99.90
18794;DHT22;29610;49.022;12.114;2023-06-22T06:42:48;21.90;99.90
18794;DHT22;29610;49.022;12.114;2023-06-22T06:45:19;21.90;99.90
18794;DHT22;29610;49.022;12.114;2023-06-22T06:47:50;21.90;99.90
18794;DHT22;29610;49.022;12.114;2023-06-22T06:50:21;22.10;99.90
18794;DHT22;29610;49.022;12.114;2023-06-22T06:52:49;22.40;99.90
18794;DHT22;29610;49.022;12.114;2023-06-22T06:55:18;22.70;99.90
18794;DHT22;29610;49.022;12.114;2023-06-22T06:57:47;22.90;99.90
18794;DHT22;29610;49.022;12.114;2023-06-22T07:00:18;22.90;99.90
18794;DHT22;29610;49.022;12.114;2023-06-22T07:02:47;23.00;99.90
18794;DHT22;29610;49.022;12.114;2023-06-22T07:05:17;23.10;99.90
18794;DHT22;29610;49.022;12.114;2023-06-22T07:07:46;23.40;99.90
18794;DHT22;29610;49.022;12.114;2023-06-22T07:10:14;23.50;99.90
18794;DHT22;29610;49.022;12.114;2023-06-22T07:12:43;23.50;99.90
18794;DHT22;29610;49.022;12.114;2023-06-22T07:15:11;23.70;99.90
18794;DHT22;29610;49.022;12.114;2023-06-22T07:17:40;23.90;99.90
18794;DHT22;29610;49.022;12.114;2023-06-22T07:20:10;24.10;99.90
18794;DHT22;29610;49.022;12.114;2023-06-22T07:22:42;24.40;99.90
18794;DHT22;29610;49.022;12.114;2023-06-22T07:25:11;24.50;99.90
18794;DHT22;29610;49.022;12.114;2023-06-22T07:27:55;24.40;99.90
18794;DHT22;29610;49.022;12.114;2023-06-22T07:30:26;24.70;99.90
18794;DHT22;29610;49.022;12.114;2023-06-22T07:32:56;25.10;99.90
18794;DHT22;29610;49.022;12.114;2023-06-22T07:35:25;25.30;99.90
18794;DHT22;29610;49.022;12.114;2023-06-22T07:37:55;25.70;99.90
18794;DHT22;29610;49.022;12.114;2023-06-22T07:40:23;26.10;99.90
18794;DHT22;29610;49.022;12.114;2023-06-22T07:42:52;26.70;99.90
18794;DHT22;29610;49.022;12.114;2023-06-22T07:45:20;26.80;99.90
18794;DHT22;29610;49.022;12.114;2023-06-22T07:47:49;26.80;98.30
18794;DHT22;29610;49.022;12.114;2023-06-22T07:50:18;26.90;97.50
18794;DHT22;29610;49.022;12.114;2023-06-22T07:52:46;26.80;97.40
18794;DHT22;29610;49.022;12.114;2023-06-22T07:55:17;27.30;96.00
18794;DHT22;29610;49.022;12.114;2023-06-22T07:57:48;27.50;94.40
18794;DHT22;29610;49.022;12.114;2023-06-22T08:00:19;27.30;95.30
18794;DHT22;29610;49.022;12.114;2023-06-22T08:02:48;27.50;94.80
18794;DHT22;29610;49.022;12.114;2023-06-22T08:05:17;27.50;92.90
18794;DHT22;29610;49.022;12.114;2023-06-22T08:07:48;27.70;91.30
18794;DHT22;29610;49.022;12.114;2023-06-22T08:10:19;27.80;92.20
18794;DHT22;29610;49.022;12.114;2023-06-22T08:12:48;28.40;90.30
18794;DHT22;29610;49.022;12.114;2023-06-22T08:15:16;29.00;87.40
18794;DHT22;29610;49.022;12.114;2023-06-22T08:17:45;29.30;88.20
18794;DHT22;29610;49.022;12.114;2023-06-22T08:20:14;29.70;85.60
18794;DHT22;29610;49.022;12.114;2023-06-22T08:22:43;29.90;82.00
18794;DHT22;29610;49.022;12.114;2023-06-22T08:25:12;29.90;83.30
18794;DHT22;29610;49.022;12.114;2023-06-22T08:27:46;29.90;81.20
18794;DHT22;29610;49.022;12.114;2023-06-22T08:30:15;30.50;80.70
18794;DHT22;29610;49.022;12.114;2023-06-22T08:32:45;30.40;79.70
18794;DHT22;29610;49.022;12.114;2023-06-22T08:35:13;30.70;79.90
18794;DHT22;29610;49.022;12.114;2023-06-22T08:37:42;31.00;78.50
18794;DHT22;29610;49.022;12.114;2023-06-22T08:40:12;30.90;75.40
18794;DHT22;29610;49.022;12.114;2023-06-22T08:42:41;31.10;78.70
18794;DHT22;29610;49.022;12.114;2023-06-22T08:45:11;31.10;75.40
18794;DHT22;29610;49.022;12.114;2023-06-22T08:47:41;31.20;76.80
18794;DHT22;29610;49.022;12.114;2023-06-22T08:50:11;31.10;75.80
18794;DHT22;29610;49.022;12.114;2023-06-22T08:52:40;31.40;74.70
18794;DHT22;29610;49.022;12.114;2023-06-22T08:55:10;31.80;75.00
18794;DHT22;29610;49.022;12.114;2023-06-22T08:57:39;32.40;73.20
18794;DHT22;29610;49.022;12.114;2023-06-22T09:00:08;32.80;70.40
18794;DHT22;29610;49.022;12.114;2023-06-22T09:02:47;33.00;69.20
18794;DHT22;29610;49.022;12.114;2023-06-22T09:05:16;32.70;69.70
18794;DHT22;29610;49.022;12.114;2023-06-22T09:07:45;32.10;71.00
18794;DHT22;29610;49.022;12.114;2023-06-22T09:10:14;31.90;69.80
18794;DHT22;29610;49.022;12.114;2023-06-22T09:12:42;32.20;69.30
18794;DHT22;29610;49.022;12.114;2023-06-22T09:15:12;32.10;67.40
18794;DHT22;29610;49.022;12.114;2023-06-22T09:17:44;32.30;70.10
18794;DHT22;29610;49.022;12.114;2023-06-22T09:20:14;32.70;69.70
18794;DHT22;29610;49.022;12.114;2023-06-22T09:22:43;32.90;69.30
18794;DHT22;29610;49.022;12.114;2023-06-22T09:25:12;32.90;69.20
18794;DHT22;29610;49.022;12.114;2023-06-22T09:27:41;33.30;68.00
18794;DHT22;29610;49.022;12.114;2023-06-22T09:30:11;33.40;68.50
18794;DHT22;29610;49.022;12.114;2023-06-22T09:32:40;33.60;65.40
18794;DHT22;29610;49.022;12.114;2023-06-22T09:35:09;33.70;67.60
18794;DHT22;29610;49.022;12.114;2023-06-22T09:37:40;33.70;66.30
18794;DHT22;29610;49.022;12.114;2023-06-22T09:40:09;33.30;68.00
18794;DHT22;29610;49.022;12.114;2023-06-22T09:42:41;32.90;68.40
18794;DHT22;29610;49.022;12.114;2023-06-22T09:45:11;32.80;66.90
18794;DHT22;29610;49.022;12.114;2023-06-22T09:47:40;32.80;68.90
18794;DHT22;29610;49.022;12.114;2023-06-22T09:50:10;32.90;66.60
18794;DHT22;29610;49.022;12.114;2023-06-22T09:52:39;33.00;69.50
18794;DHT22;29610;49.022;12.114;2023-06-22T09:55:15;33.20;71.00
18794;DHT22;29610;49.022;12.114;2023-06-22T09:57:44;32.60;69.60
18794;DHT22;29610;49.022;12.114;2023-06-22T10:00:16;32.60;69.10
18794;DHT22;29610;49.022;12.114;2023-06-22T10:02:46;32.50;68.10
18794;DHT22;29610;49.022;12.114;2023-06-22T10:05:15;32.10;68.70
18794;DHT22;29610;49.022;12.114;2023-06-22T10:07:44;32.40;69.90
18794;DHT22;29610;49.022;12.114;2023-06-22T10:10:13;32.30;69.10
18794;DHT22;29610;49.022;12.114;2023-06-22T10:12:45;32.80;69.80
18794;DHT22;29610;49.022;12.114;2023-06-22T10:15:16;33.40;66.80
18794;DHT22;29610;49.022;12.114;2023-06-22T10:17:45;33.80;66.60
18794;DHT22;29610;49.022;12.114;2023-06-22T10:20:13;34.50;65.70
18794;DHT22;29610;49.022;12.114;2023-06-22T10:22:45;34.70;64.50
18794;DHT22;29610;49.022;12.114;2023-06-22T10:25:14;34.00;67.60
18794;DHT22;29610;49.022;12.114;2023-06-22T10:27:43;33.90;64.50
18794;DHT22;29610;49.022;12.114;2023-06-22T10:30:12;33.70;65.60
18794;DHT22;29610;49.022;12.114;2023-06-22T10:32:43;33.40;64.80
18794;DHT22;29610;49.022;12.114;2023-06-22T10:35:11;33.50;67.50
18794;DHT22;29610;49.022;12.114;2023-06-22T10:37:43;33.90;65.60
18794;DHT22;29610;49.022;12.114;2023-06-22T10:40:13;32.80;65.20
18794;DHT22;29610;49.022;12.114;2023-06-22T10:42:43;33.90;67.40
18794;DHT22;29610;49.022;12.114;2023-06-22T10:45:11;34.20;66.20
18794;DHT22;29610;49.022;12.114;2023-06-22T10:47:40;34.00;65.50
18794;DHT22;29610;49.022;12.114;2023-06-22T10:50:11;34.60;64.30
18794;DHT22;29610;49.022;12.114;2023-06-22T10:52:40;35.20;63.90
18794;DHT22;29610;49.022;12.114;2023-06-22T10:55:09;35.00;61.90
18794;DHT22;29610;49.022;12.114;2023-06-22T10:57:38;34.70;63.70
18794;DHT22;29610;49.022;12.114;2023-06-22T11:00:11;34.40;61.50
18794;DHT22;29610;49.022;12.114;2023-06-22T11:02:42;34.20;62.30
18794;DHT22;29610;49.022;12.114;2023-06-22T11:05:11;34.30;64.40
18794;DHT22;29610;49.022;12.114;2023-06-22T11:07:42;34.50;62.70
18794;DHT22;29610;49.022;12.114;2023-06-22T11:10:12;35.20;64.70
18794;DHT22;29610;49.022;12.114;2023-06-22T11:12:41;35.50;62.20
18794;DHT22;29610;49.022;12.114;2023-06-22T11:15:10;36.10;61.00
18794;DHT22;29610;49.022;12.114;2023-06-22T11:17:39;36.20;60.00
18794;DHT22;29610;49.022;12.114;2023-06-22T11:20:10;35.40;58.70
18794;DHT22;29610;49.022;12.114;2023-06-22T11:22:39;35.50;62.40
18794;DHT22;29610;49.022;12.114;2023-06-22T11:25:09;35.60;58.80
18794;DHT22;29610;49.022;12.114;2023-06-22T11:27:39;36.10;57.70
18794;DHT22;29610;49.022;12.114;2023-06-22T11:30:08;36.40;59.90
18794;DHT22;29610;49.022;12.114;2023-06-22T11:32:37;36.60;60.10
18794;DHT22;29610;49.022;12.114;2023-06-22T11:35:06;36.70;57.90
18794;DHT22;29610;49.022;12.114;2023-06-22T11:37:37;36.20;59.40
18794;DHT22;29610;49.022;12.114;2023-06-22T11:40:06;36.20;59.20
18794;DHT22;29610;49.022;12.114;2023-06-22T11:42:36;36.30;55.80
18794;DHT22;29610;49.022;12.114;2023-06-22T11:45:06;35.30;59.10
18794;DHT22;29610;49.022;12.114;2023-06-22T11:47:35;35.00;60.20
18794;DHT22;29610;49.022;12.114;2023-06-22T11:50:05;35.20;59.50
18794;DHT22;29610;49.022;12.114;2023-06-22T11:52:36;35.30;58.90
18794;DHT22;29610;49.022;12.114;2023-06-22T11:55:05;35.70;57.80
18794;DHT22;29610;49.022;12.114;2023-06-22T11:57:37;36.20;57.90
18794;DHT22;29610;49.022;12.114;2023-06-22T12:00:07;36.80;58.90
18794;DHT22;29610;49.022;12.114;2023-06-22T12:02:44;37.30;55.60
18794;DHT22;29610;49.022;12.114;2023-06-22T12:05:13;37.10;57.40
18794;DHT22;29610;49.022;12.114;2023-06-22T12:07:43;36.80;56.80
18794;DHT22;29610;49.022;12.114;2023-06-22T12:10:11;37.00;59.70
18794;DHT22;29610;49.022;12.114;2023-06-22T12:12:40;37.80;58.50
18794;DHT22;29610;49.022;12.114;2023-06-22T12:15:10;38.00;56.30
18794;DHT22;29610;49.022;12.114;2023-06-22T12:17:39;37.40;57.50
18794;DHT22;29610;49.022;12.114;2023-06-22T12:20:09;36.20;60.30
18794;DHT22;29610;49.022;12.114;2023-06-22T12:22:38;35.70;59.10
18794;DHT22;29610;49.022;12.114;2023-06-22T12:25:09;36.30;59.60
18794;DHT22;29610;49.022;12.114;2023-06-22T12:27:37;35.50;59.90
18794;DHT22;29610;49.022;12.114;2023-06-22T12:30:08;35.30;60.30
18794;DHT22;29610;49.022;12.114;2023-06-22T12:32:37;35.30;62.00
18794;DHT22;29610;49.022;12.114;2023-06-22T12:35:07;36.10;61.30
18794;DHT22;29610;49.022;12.114;2023-06-22T12:37:40;35.90;60.90
18794;DHT22;29610;49.022;12.114;2023-06-22T12:40:12;36.10;59.50
18794;DHT22;29610;49.022;12.114;2023-06-22T12:42:40;35.80;61.70
18794;DHT22;29610;49.022;12.114;2023-06-22T12:45:10;35.30;60.40
18794;DHT22;29610;49.022;12.114;2023-06-22T12:47:38;35.30;65.90
18794;DHT22;29610;49.022;12.114;2023-06-22T12:50:07;35.60;63.70
18794;DHT22;29610;49.022;12.114;2023-06-22T12:52:37;35.30;60.60
18794;DHT22;29610;49.022;12.114;2023-06-22T12:55:08;35.80;61.80
18794;DHT22;29610;49.022;12.114;2023-06-22T12:57:39;36.30;59.30
18794;DHT22;29610;49.022;12.114;2023-06-22T13:00:08;36.30;58.70
18794;DHT22;29610;49.022;12.114;2023-06-22T13:02:38;36.00;59.70
18794;DHT22;29610;49.022;12.114;2023-06-22T13:05:07;35.80;60.50
18794;DHT22;29610;49.022;12.114;2023-06-22T13:07:36;36.30;59.00
18794;DHT22;29610;49.022;12.114;2023-06-22T13:10:06;36.70;57.40
18794;DHT22;29610;49.022;12.114;2023-06-22T13:12:35;36.70;57.10
18794;DHT22;29610;49.022;12.114;2023-06-22T13:15:06;36.40;59.50
18794;DHT22;29610;49.022;12.114;2023-06-22T13:17:35;36.20;57.90
18794;DHT22;29610;49.022;12.114;2023-06-22T13:20:05;36.10;59.30
18794;DHT22;29610;49.022;12.114;2023-06-22T13:22:35;36.30;59.30
18794;DHT22;29610;49.022;12.114;2023-06-22T13:25:08;36.70;57.10
18794;DHT22;29610;49.022;12.114;2023-06-22T13:27:39;35.90;58.50
18794;DHT22;29610;49.022;12.114;2023-06-22T13:30:10;35.50;62.20
18794;DHT22;29610;49.022;12.114;2023-06-22T13:32:41;36.20;60.50
18794;DHT22;29610;49.022;12.114;2023-06-22T13:35:11;36.80;57.70
18794;DHT22;29610;49.022;12.114;2023-06-22T13:37:40;35.90;56.10
18794;DHT22;29610;49.022;12.114;2023-06-22T13:40:09;35.50;60.10
18794;DHT22;29610;49.022;12.114;2023-06-22T13:42:38;35.10;58.90
18794;DHT22;29610;49.022;12.114;2023-06-22T13:45:07;35.10;59.20
18794;DHT22;29610;49.022;12.114;2023-06-22T13:47:38;36.00;58.50
18794;DHT22;29610;49.022;12.114;2023-06-22T13:50:07;37.00;59.70
18794;DHT22;29610;49.022;12.114;2023-06-22T13:52:37;37.70;56.90
18794;DHT22;29610;49.022;12.114;2023-06-22T13:55:06;37.90;56.60
18794;DHT22;29610;49.022;12.114;2023-06-22T13:57:35;38.10;56.10
18794;DHT22;29610;49.022;12.114;2023-06-22T14:00:05;37.90;56.20
18794;DHT22;29610;49.022;12.114;2023-06-22T14:02:39;38.00;55.70
18794;DHT22;29610;49.022;12.114;2023-06-22T14:05:08;38.30;54.50
18794;DHT22;29610;49.022;12.114;2023-06-22T14:07:38;38.00;53.10
18794;DHT22;29610;49.022;12.114;2023-06-22T14:10:07;37.40;55.80
18794;DHT22;29610;49.022;12.114;2023-06-22T14:12:36;37.10;57.70
18794;DHT22;29610;49.022;12.114;2023-06-22T14:15:05;36.60;56.00
18794;DHT22;29610;49.022;12.114;2023-06-22T14:17:34;36.30;56.50
18794;DHT22;29610;49.022;12.114;2023-06-22T14:20:05;35.90;56.80
18794;DHT22;29610;49.022;12.114;2023-06-22T14:22:35;35.60;57.30
18794;DHT22;29610;49.022;12.114;2023-06-22T14:25:05;35.30;57.10
18794;DHT22;29610;49.022;12.114;2023-06-22T14:27:34;35.20;59.40
18794;DHT22;29610;49.022;12.114;2023-06-22T14:30:03;34.90;60.60
18794;DHT22;29610;49.022;12.114;2023-06-22T14:32:33;34.90;58.90
18794;DHT22;29610;49.022;12.114;2023-06-22T14:35:03;35.30;59.40
18794;DHT22;29610;49.022;12.114;2023-06-22T14:37:32;35.00;59.40
18794;DHT22;29610;49.022;12.114;2023-06-22T14:40:01;35.70;60.70
18794;DHT22;29610;49.022;12.114;2023-06-22T14:42:29;36.20;60.30
18794;DHT22;29610;49.022;12.114;2023-06-22T14:44:58;36.30;57.30
18794;DHT22;29610;49.022;12.114;2023-06-22T14:47:26;35.50;59.80
18794;DHT22;29610;49.022;12.114;2023-06-22T14:49:55;35.30;61.10
18794;DHT22;29610;49.022;12.114;2023-06-22T14:52:25;35.30;61.10
18794;DHT22;29610;49.022;12.114;2023-06-22T14:54:54;34.80;59.20
18794;DHT22;29610;49.022;12.114;2023-06-22T14:57:24;35.00;61.80
18794;DHT22;29610;49.022;12.114;2023-06-22T14:59:52;35.30;60.90
18794;DHT22;29610;49.022;12.114;2023-06-22T15:02:21;35.60;60.50
18794;DHT22;29610;49.022;12.114;2023-06-22T15:04:50;35.80;59.20
18794;DHT22;29610;49.022;12.114;2023-06-22T15:07:20;35.80;59.90
18794;DHT22;29610;49.022;12.114;2023-06-22T15:09:49;35.80;59.90
18794;DHT22;29610;49.022;12.114;2023-06-22T15:12:18;35.90;58.10
18794;DHT22;29610;49.022;12.114;2023-06-22T15:14:46;35.80;61.30
18794;DHT22;29610;49.022;12.114;2023-06-22T15:17:15;35.90;59.40
18794;DHT22;29610;49.022;12.114;2023-06-22T15:19:43;35.90;59.90
18794;DHT22;29610;49.022;12.114;2023-06-22T15:22:12;35.90;57.30
18794;DHT22;29610;49.022;12.114;2023-06-22T15:24:40;35.30;59.00
18794;DHT22;29610;49.022;12.114;2023-06-22T15:27:10;35.00;60.00
18794;DHT22;29610;49.022;12.114;2023-06-22T15:29:40;34.80;60.30
18794;DHT22;29610;49.022;12.114;2023-06-22T15:32:09;34.50;59.20